Time;durP1;ratioP1;P1;durP2;ratioP2;P2;SDS_P1;SDS_P2;PMS_P1;PMS_P2;Temp;Humidity;BMP_temperature;BMP_pressure;BME280_temperature;BME280_humidity;BME280_pressure;Samples;Min_cycle;Max_cycle;Signal;HPM_P1;HPM_P2
2024/01/09 00:02:22;;;;;;;20.27;9.07;;;-3.60;99.90;;;;;;4989084;28;20023;-73
2024/01/09 00:04:51;;;;;;;24.20;9.95;;;-3.60;99.90;;;;;;4991845;28;20037;-72
2024/01/09 00:07:19;;;;;;;19.70;8.65;;;-3.70;99.90;;;;;;4991532;28;20026;-72
2024/01/09 00:09:51;;;;;;;21.10;9.55;;;-3.70;99.90;;;;;;4988821;28;20393;-72
2024/01/09 00:12:16;;;;;;;20.42;9.43;;;-3.70;99.90;;;;;;4990883;28;20342;-73
2024/01/09 00:14:42;;;;;;;20.20;8.02;;;-3.70;99.90;;;;;;4990536;28;20398;-74
2024/01/09 00:17:11;;;;;;;22.83;9.68;;;-3.80;99.90;;;;;;4991586;28;20033;-74
2024/01/09 00:19:40;;;;;;;20.65;9.55;;;-3.80;99.90;;;;;;4991786;28;20342;-74
2024/01/09 00:22:08;;;;;;;20.88;9.65;;;-3.80;99.90;;;;;;4991629;28;20030;-73
2024/01/09 00:24:33;;;;;;;20.50;9.38;;;-3.80;99.90;;;;;;4988166;28;20034;-73
2024/01/09 00:26:59;;;;;;;20.83;8.93;;;-3.80;99.90;;;;;;4989432;28;20362;-73
2024/01/09 00:29:24;;;;;;;22.27;9.23;;;-3.80;99.90;;;;;;4991481;28;20081;-73
2024/01/09 00:31:53;;;;;;;23.23;10.63;;;-3.90;99.90;;;;;;4991537;28;20023;-73
2024/01/09 00:34:18;;;;;;;21.13;9.10;;;-3.80;99.90;;;;;;4990624;28;20134;-73
2024/01/09 00:36:44;;;;;;;20.75;8.90;;;-3.90;99.90;;;;;;4987639;28;20182;-72
2024/01/09 00:39:19;;;;;;;22.08;9.93;;;-4.00;99.90;;;;;;4991200;28;20027;-72
2024/01/09 00:41:44;;;;;;;20.25;9.35;;;-3.90;99.90;;;;;;4988924;28;20053;-72
2024/01/09 00:44:16;;;;;;;25.75;10.65;;;-3.90;99.90;;;;;;4990002;28;20493;-72
2024/01/09 00:46:47;;;;;;;21.92;9.02;;;-3.90;99.90;;;;;;4989670;28;20030;-72
2024/01/09 00:49:13;;;;;;;18.50;9.30;;;-3.80;99.90;;;;;;5000084;28;20076;-72
2024/01/09 00:51:38;;;;;;;24.25;9.77;;;-3.80;99.90;;;;;;4989002;28;20047;-72
2024/01/09 00:54:10;;;;;;;21.60;9.93;;;-3.80;99.90;;;;;;4991240;28;20501;-72
2024/01/09 00:56:45;;;;;;;22.33;8.98;;;-3.80;99.90;;;;;;4985200;28;20034;-73
2024/01/09 00:59:13;;;;;;;19.50;9.43;;;-3.80;99.90;;;;;;4988796;28;20034;-72
2024/01/09 01:01:39;;;;;;;21.67;9.57;;;-3.80;99.90;;;;;;4988822;28;20080;-73
2024/01/09 01:04:04;;;;;;;21.80;9.55;;;-3.80;99.90;;;;;;4989146;28;20472;-73
2024/01/09 01:06:43;;;;;;;17.63;8.27;;;-3.80;99.90;;;;;;4989635;28;20045;-72
2024/01/09 01:09:12;;;;;;;20.33;9.25;;;-3.90;99.90;;;;;;4990522;28;20048;-73
2024/01/09 01:11:38;;;;;;;20.75;9.00;;;-3.90;99.90;;;;;;4991662;28;20034;-74
2024/01/09 01:14:10;;;;;;;23.73;9.23;;;-3.90;99.90;;;;;;4986453;28;20030;-73
2024/01/09 01:16:35;;;;;;;20.27;8.52;;;-3.90;99.90;;;;;;4989772;28;20485;-74
2024/01/09 01:19:04;;;;;;;21.50;9.27;;;-4.00;99.90;;;;;;4989394;28;20101;-74
2024/01/09 01:21:29;;;;;;;17.08;7.72;;;-3.90;99.90;;;;;;4993771;28;20054;-73
2024/01/09 01:23:55;;;;;;;16.77;8.68;;;-3.90;99.90;;;;;;4991157;28;20058;-74
2024/01/09 01:26:21;;;;;;;19.95;9.45;;;-3.90;99.90;;;;;;4986693;28;20033;-74
2024/01/09 01:28:52;;;;;;;18.73;8.48;;;-3.90;99.90;;;;;;4990210;28;20512;-73
2024/01/09 01:31:21;;;;;;;19.92;8.82;;;-3.90;99.90;;;;;;4991296;28;20030;-74
2024/01/09 01:33:49;;;;;;;19.17;8.60;;;-4.00;99.90;;;;;;4991000;28;20026;-74
2024/01/09 01:36:16;;;;;;;20.15;8.77;;;-4.00;99.90;;;;;;4987847;28;20518;-73
2024/01/09 01:38:43;;;;;;;17.50;8.55;;;-4.00;99.90;;;;;;4990688;28;20069;-72
2024/01/09 01:41:11;;;;;;;16.88;8.38;;;-4.00;99.90;;;;;;4986216;28;20038;-72
2024/01/09 01:43:40;;;;;;;17.70;9.57;;;-4.00;99.90;;;;;;4992004;28;20502;-72
2024/01/09 01:46:06;;;;;;;20.17;9.05;;;-4.00;99.90;;;;;;4987195;28;20030;-73
2024/01/09 01:48:33;;;;;;;21.58;9.02;;;-4.00;99.90;;;;;;4989897;28;20153;-72
2024/01/09 01:50:58;;;;;;;20.92;8.65;;;-4.00;99.90;;;;;;4987886;28;20027;-73
2024/01/09 01:53:26;;;;;;;24.63;9.05;;;-4.00;99.90;;;;;;4987000;28;20512;-72
2024/01/09 01:55:52;;;;;;;19.63;9.77;;;-4.00;99.90;;;;;;4984355;28;20023;-72
2024/01/09 01:58:21;;;;;;;19.08;9.98;;;-4.00;99.90;;;;;;4986914;28;20036;-72
2024/01/09 02:00:51;;;;;;;23.23;9.57;;;-4.00;99.90;;;;;;4984103;28;20405;-72
2024/01/09 02:03:16;;;;;;;19.65;8.20;;;-4.10;99.90;;;;;;4986950;28;20041;-73
2024/01/09 02:05:42;;;;;;;19.30;8.52;;;-4.00;99.90;;;;;;4989973;28;20478;-71
2024/01/09 02:08:12;;;;;;;19.40;8.65;;;-4.10;99.90;;;;;;4988049;28;20128;-73
2024/01/09 02:10:41;;;;;;;19.52;8.60;;;-4.10;99.90;;;;;;4988339;28;20026;-72
2024/01/09 02:13:16;;;;;;;16.50;8.27;;;-4.00;99.90;;;;;;4988857;28;20045;-72
2024/01/09 02:15:42;;;;;;;20.83;9.35;;;-4.10;99.90;;;;;;4988549;28;20034;-72
2024/01/09 02:18:08;;;;;;;18.02;9.00;;;-4.10;99.90;;;;;;4985671;28;20122;-72
2024/01/09 02:20:37;;;;;;;19.60;8.50;;;-4.10;99.90;;;;;;4986107;28;20030;-72
2024/01/09 02:23:03;;;;;;;18.55;7.85;;;-4.20;99.90;;;;;;4988429;28;20080;-72
2024/01/09 02:25:34;;;;;;;15.40;8.00;;;-4.20;99.90;;;;;;4988174;28;20473;-73
2024/01/09 02:28:12;;;;;;;18.50;8.63;;;-4.20;99.90;;;;;;4982072;28;20022;-72
2024/01/09 02:30:38;;;;;;;19.95;8.88;;;-4.20;99.90;;;;;;4989466;28;20053;-72
2024/01/09 02:33:06;;;;;;;16.67;8.38;;;-4.20;99.90;;;;;;4984191;28;20030;-72
2024/01/09 02:35:32;;;;;;;19.52;8.52;;;-4.30;99.90;;;;;;4989092;28;20026;-73
2024/01/09 02:38:01;;;;;;;20.10;8.05;;;-4.30;99.90;;;;;;4985238;28;20037;-72
2024/01/09 02:40:32;;;;;;;22.48;8.50;;;-4.20;99.90;;;;;;4990536;28;20147;-72
2024/01/09 02:42:58;;;;;;;18.55;8.88;;;-4.30;99.90;;;;;;4990036;28;20022;-73
2024/01/09 02:45:26;;;;;;;20.50;8.95;;;-4.30;99.90;;;;;;4986112;28;20064;-73
2024/01/09 02:47:55;;;;;;;21.60;8.65;;;-4.30;99.90;;;;;;4981659;28;20030;-73
2024/01/09 02:50:23;;;;;;;20.90;9.02;;;-4.30;99.90;;;;;;4988837;28;20023;-74
2024/01/09 02:52:54;;;;;;;19.98;8.55;;;-4.30;99.90;;;;;;4988748;28;20217;-73
2024/01/09 02:55:20;;;;;;;18.55;8.27;;;-4.30;99.90;;;;;;4987087;28;20033;-73
2024/01/09 02:57:46;;;;;;;20.10;7.95;;;-4.30;99.90;;;;;;4986593;28;20485;-72
2024/01/09 03:00:20;;;;;;;20.75;8.02;;;-4.30;99.90;;;;;;4984424;28;20065;-73
2024/01/09 03:02:52;;;;;;;22.17;8.23;;;-4.30;99.90;;;;;;4990207;28;20127;-73
2024/01/09 03:05:18;;;;;;;19.48;8.52;;;-4.30;99.90;;;;;;4985831;28;20027;-73
2024/01/09 03:07:46;;;;;;;19.02;7.78;;;-4.30;99.90;;;;;;4986545;28;20110;-73
2024/01/09 03:10:15;;;;;;;19.95;8.65;;;-4.30;99.90;;;;;;4989229;28;20101;-73
2024/01/09 03:12:43;;;;;;;16.05;7.97;;;-4.30;99.90;;;;;;4987006;28;20733;-73
2024/01/09 03:15:10;;;;;;;18.52;8.07;;;-4.30;99.90;;;;;;4984856;28;20746;-73
2024/01/09 03:17:38;;;;;;;19.92;8.57;;;-4.30;99.90;;;;;;4988474;28;20429;-73
2024/01/09 03:20:06;;;;;;;20.98;8.82;;;-4.20;99.90;;;;;;4987252;28;20099;-73
2024/01/09 03:22:34;;;;;;;21.10;8.73;;;-4.20;99.90;;;;;;4988169;28;20102;-73
2024/01/09 03:25:00;;;;;;;20.58;8.70;;;-4.20;99.90;;;;;;4987679;28;20053;-73
2024/01/09 03:27:25;;;;;;;20.92;8.25;;;-4.20;99.90;;;;;;4955836;28;20032;-73
2024/01/09 03:29:51;;;;;;;17.98;8.43;;;-4.20;99.90;;;;;;4965827;28;20466;-74
2024/01/09 03:32:17;;;;;;;19.40;8.18;;;-4.20;99.90;;;;;;4959666;28;20089;-73
2024/01/09 03:34:45;;;;;;;21.92;8.43;;;-4.20;99.90;;;;;;4957207;28;20073;-73
2024/01/09 03:37:16;;;;;;;18.95;8.57;;;-4.20;99.90;;;;;;4955120;28;20068;-75
2024/01/09 03:39:46;;;;;;;19.10;8.45;;;-4.30;99.90;;;;;;4958607;28;20402;-73
2024/01/09 03:42:11;;;;;;;18.55;8.30;;;-4.30;99.90;;;;;;4957572;28;20107;-73
2024/01/09 03:44:37;;;;;;;18.15;7.75;;;-4.30;99.90;;;;;;4955649;28;20106;-73
2024/01/09 03:47:05;;;;;;;20.58;9.48;;;-4.30;99.90;;;;;;4956712;28;20034;-73
2024/01/09 03:49:31;;;;;;;18.73;8.13;;;-4.30;99.90;;;;;;4957874;28;20097;-73
2024/01/09 03:51:58;;;;;;;19.55;8.45;;;-4.30;99.90;;;;;;4957573;28;20622;-73
2024/01/09 03:54:30;;;;;;;16.38;8.18;;;-4.30;99.90;;;;;;4969600;28;20031;-73
2024/01/09 03:56:55;;;;;;;18.95;8.73;;;-4.30;99.90;;;;;;4955058;28;20047;-73
2024/01/09 03:59:23;;;;;;;22.20;9.35;;;-4.40;99.90;;;;;;4957308;28;20074;-73
2024/01/09 04:01:49;;;;;;;20.17;9.25;;;-4.30;99.90;;;;;;4952365;28;20550;-73
2024/01/09 04:04:15;;;;;;;17.08;8.20;;;-4.30;99.90;;;;;;4953705;28;20356;-73
2024/01/09 04:06:43;;;;;;;19.90;9.35;;;-4.30;99.90;;;;;;4954946;28;20030;-73
2024/01/09 04:09:10;;;;;;;19.27;8.55;;;-4.30;99.90;;;;;;4958030;28;20033;-73
2024/01/09 04:11:42;;;;;;;16.35;8.10;;;-4.30;99.90;;;;;;4956875;28;20094;-73
2024/01/09 04:14:07;;;;;;;18.23;9.30;;;-4.40;99.90;;;;;;4967608;28;20131;-73
2024/01/09 04:16:36;;;;;;;20.08;8.50;;;-4.40;99.90;;;;;;4955445;28;20102;-73
2024/01/09 04:19:04;;;;;;;18.95;7.55;;;-4.30;99.90;;;;;;4952846;28;20104;-73
2024/01/09 04:21:36;;;;;;;21.30;9.27;;;-4.40;99.90;;;;;;4955054;28;20314;-73
2024/01/09 04:24:02;;;;;;;18.45;8.82;;;-4.40;99.90;;;;;;4954335;28;20031;-73
2024/01/09 04:26:36;;;;;;;18.77;8.25;;;-4.40;99.90;;;;;;4953847;28;20031;-73
2024/01/09 04:29:02;;;;;;;18.42;7.72;;;-4.40;99.90;;;;;;4953513;28;20031;-73
2024/01/09 04:31:31;;;;;;;21.80;10.35;;;-4.40;99.90;;;;;;4959605;28;20502;-73
2024/01/09 04:33:56;;;;;;;19.50;8.80;;;-4.40;99.90;;;;;;4952436;28;20037;-73
2024/01/09 04:36:25;;;;;;;19.98;8.93;;;-4.40;99.90;;;;;;4954465;28;20209;-74
2024/01/09 04:38:51;;;;;;;20.70;8.05;;;-4.40;99.90;;;;;;4955249;28;20031;-73
2024/01/09 04:41:17;;;;;;;19.40;8.52;;;-4.50;99.90;;;;;;4957722;28;20053;-73
2024/01/09 04:43:49;;;;;;;16.65;7.22;;;-4.50;99.90;;;;;;4953855;28;20046;-73
2024/01/09 04:46:14;;;;;;;19.38;8.98;;;-4.40;99.90;;;;;;4952970;28;20028;-73
2024/01/09 04:48:43;;;;;;;21.63;9.50;;;-4.40;99.90;;;;;;4956735;28;20027;-74
2024/01/09 04:51:15;;;;;;;21.88;9.60;;;-4.40;99.90;;;;;;4951195;28;20031;-74
2024/01/09 04:53:40;;;;;;;22.15;8.73;;;-4.40;99.90;;;;;;4955910;28;20038;-74
2024/01/09 04:56:07;;;;;;;19.33;9.10;;;-4.30;99.90;;;;;;4953295;28;20027;-75
2024/01/09 04:58:35;;;;;;;20.02;9.30;;;-4.30;99.90;;;;;;4953836;28;20042;-75
2024/01/09 05:01:01;;;;;;;21.67;8.77;;;-4.30;99.90;;;;;;4953631;28;20090;-74
2024/01/09 05:03:26;;;;;;;18.80;9.27;;;-4.30;99.90;;;;;;4954025;28;20024;-75
2024/01/09 05:05:52;;;;;;;15.98;8.82;;;-4.20;99.90;;;;;;4952394;28;20434;-75
2024/01/09 05:08:20;;;;;;;18.15;7.65;;;-4.20;99.90;;;;;;4951798;28;20023;-74
2024/01/09 05:10:49;;;;;;;22.05;9.70;;;-4.10;99.90;;;;;;4952951;28;20058;-73
2024/01/09 05:13:17;;;;;;;25.42;9.35;;;-4.10;99.90;;;;;;4965714;28;20064;-74
2024/01/09 05:15:43;;;;;;;21.20;8.70;;;-4.10;99.90;;;;;;4959056;28;20051;-74
2024/01/09 05:18:11;;;;;;;22.38;8.73;;;-4.00;99.90;;;;;;4955020;28;20074;-73
2024/01/09 05:20:37;;;;;;;19.42;8.80;;;-4.00;99.90;;;;;;4958525;28;20038;-73
2024/01/09 05:23:03;;;;;;;20.25;8.55;;;-4.10;99.90;;;;;;4955115;28;20434;-73
2024/01/09 05:25:29;;;;;;;21.98;9.23;;;-4.20;99.90;;;;;;4953882;28;20029;-73
2024/01/09 05:27:55;;;;;;;20.73;9.02;;;-4.10;99.90;;;;;;4954511;28;20050;-74
2024/01/09 05:30:21;;;;;;;20.75;8.65;;;-4.20;99.90;;;;;;4956569;28;20153;-73
2024/01/09 05:32:47;;;;;;;21.30;9.10;;;-4.20;99.90;;;;;;4971193;28;20110;-73
2024/01/09 05:35:15;;;;;;;22.00;9.35;;;-4.10;99.90;;;;;;4954350;28;20045;-73
2024/01/09 05:37:47;;;;;;;19.38;8.98;;;-4.10;99.90;;;;;;4956237;28;20027;-74
2024/01/09 05:40:19;;;;;;;18.38;8.98;;;-4.20;99.90;;;;;;4958358;28;20030;-73
2024/01/09 05:42:48;;;;;;;25.55;10.25;;;-4.10;99.90;;;;;;4954307;28;20039;-73
2024/01/09 05:45:14;;;;;;;23.27;10.27;;;-4.10;99.90;;;;;;4953004;28;20031;-74
2024/01/09 05:47:46;;;;;;;26.85;10.82;;;-4.10;99.90;;;;;;4951554;28;20490;-74
2024/01/09 05:50:11;;;;;;;24.92;9.98;;;-4.00;99.90;;;;;;4950683;28;20033;-74
2024/01/09 05:52:38;;;;;;;22.45;9.93;;;-3.90;99.90;;;;;;4953023;28;20105;-74
2024/01/09 05:55:09;;;;;;;23.98;11.27;;;-3.90;99.90;;;;;;4955416;28;20333;-73
2024/01/09 05:57:35;;;;;;;21.17;10.55;;;-3.80;99.90;;;;;;4950918;28;20033;-73
2024/01/09 06:00:00;;;;;;;22.73;10.93;;;-3.70;99.90;;;;;;4950246;28;20398;-73
2024/01/09 06:02:26;;;;;;;23.10;10.85;;;-3.70;99.90;;;;;;4949592;28;20034;-74
2024/01/09 06:04:52;;;;;;;26.90;11.45;;;-3.60;99.90;;;;;;4953797;28;20467;-73
2024/01/09 06:07:17;;;;;;;28.58;12.43;;;-3.50;99.90;;;;;;4954195;28;20062;-73
2024/01/09 06:09:43;;;;;;;27.95;11.18;;;-3.40;99.90;;;;;;4948096;28;20487;-73
2024/01/09 06:12:09;;;;;;;23.15;11.27;;;-3.40;99.90;;;;;;4950267;28;20037;-74
2024/01/09 06:14:35;;;;;;;22.20;9.70;;;-3.40;99.90;;;;;;4950780;28;20032;-74
2024/01/09 06:17:00;;;;;;;23.63;10.10;;;-3.40;99.90;;;;;;4954935;28;20062;-75
2024/01/09 06:19:26;;;;;;;26.23;11.02;;;-3.50;99.90;;;;;;4952447;28;20032;-73
2024/01/09 06:21:55;;;;;;;27.42;11.05;;;-3.50;99.90;;;;;;4957505;28;20084;-70
2024/01/09 06:24:23;;;;;;;21.77;9.95;;;-3.50;99.90;;;;;;4958317;28;20671;-73
2024/01/09 06:26:49;;;;;;;24.83;9.85;;;-3.50;99.90;;;;;;4955240;28;20030;-73
2024/01/09 06:29:15;;;;;;;26.48;10.15;;;-3.50;99.90;;;;;;4952840;28;20024;-72
2024/01/09 06:31:43;;;;;;;23.23;9.73;;;-3.70;99.90;;;;;;4955383;28;20085;-73
2024/01/09 06:34:09;;;;;;;23.58;9.52;;;-3.70;99.90;;;;;;4951566;28;20035;-73
2024/01/09 06:36:34;;;;;;;22.27;10.27;;;-3.70;99.90;;;;;;4955902;28;20094;-73
2024/01/09 06:39:00;;;;;;;26.98;11.18;;;-3.70;99.90;;;;;;4952932;28;20031;-74
2024/01/09 06:41:26;;;;;;;21.83;10.50;;;-3.80;99.90;;;;;;4950597;28;20035;-74
2024/01/09 06:43:54;;;;;;;25.50;10.18;;;-3.80;99.90;;;;;;4954034;28;20027;-74
2024/01/09 06:46:20;;;;;;;26.30;9.32;;;-3.80;99.90;;;;;;4951766;28;20039;-74
2024/01/09 06:48:45;;;;;;;28.33;10.60;;;-3.80;99.90;;;;;;4954854;28;21207;-74
2024/01/09 06:51:20;;;;;;;21.00;9.13;;;-3.80;99.90;;;;;;4953006;28;20050;-74
2024/01/09 06:53:45;;;;;;;26.23;10.93;;;-3.80;99.90;;;;;;4955043;28;20077;-74
2024/01/09 06:56:11;;;;;;;30.23;11.80;;;-3.80;99.90;;;;;;4955916;28;20026;-74
2024/01/09 06:58:36;;;;;;;26.40;10.80;;;-3.80;99.90;;;;;;4955653;28;20050;-74
2024/01/09 07:01:06;;;;;;;24.55;11.05;;;-3.70;99.90;;;;;;4953134;28;20042;-73
2024/01/09 07:03:32;;;;;;;25.70;11.75;;;-3.70;99.90;;;;;;4955104;28;20409;-74
2024/01/09 07:06:00;;;;;;;24.88;10.05;;;-3.70;99.90;;;;;;4961108;28;20027;-73
2024/01/09 07:08:26;;;;;;;24.50;10.52;;;-3.70;99.90;;;;;;4953688;28;20531;-74
2024/01/09 07:10:51;;;;;;;26.92;11.30;;;-3.70;99.90;;;;;;4956714;28;20031;-74
2024/01/09 07:13:20;;;;;;;26.48;12.07;;;-3.70;99.90;;;;;;4951408;28;20035;-75
2024/01/09 07:15:46;;;;;;;28.38;11.98;;;-3.60;99.90;;;;;;4953101;28;20971;-73
2024/01/09 07:18:14;;;;;;;30.60;11.68;;;-3.60;99.90;;;;;;4947941;28;20058;-74
2024/01/09 07:20:43;;;;;;;23.70;11.82;;;-3.50;99.90;;;;;;4949253;28;22397;-74
2024/01/09 07:23:12;;;;;;;21.92;11.25;;;-3.60;99.90;;;;;;4953500;28;20050;-73
2024/01/09 07:25:37;;;;;;;23.90;10.15;;;-3.60;99.90;;;;;;4951448;28;20023;-74
2024/01/09 07:28:03;;;;;;;25.80;11.32;;;-3.60;99.90;;;;;;4947861;28;20058;-74
2024/01/09 07:30:34;;;;;;;23.42;11.65;;;-3.60;99.90;;;;;;4953260;28;20106;-74
2024/01/09 07:33:00;;;;;;;28.77;11.25;;;-3.50;99.90;;;;;;4955083;28;20027;-74
2024/01/09 07:35:26;;;;;;;24.17;11.32;;;-3.60;99.90;;;;;;4952878;28;20039;-75
2024/01/09 07:37:54;;;;;;;25.02;11.13;;;-3.60;99.90;;;;;;4951231;28;20102;-74
2024/01/09 07:40:20;;;;;;;24.83;11.45;;;-3.50;99.90;;;;;;4955536;28;20386;-74
2024/01/09 07:42:52;;;;;;;27.88;12.07;;;-3.50;99.90;;;;;;4957933;28;20035;-74
2024/01/09 07:45:20;;;;;;;27.48;12.20;;;-3.50;99.90;;;;;;4955071;28;20032;-74
2024/01/09 07:47:52;;;;;;;24.85;11.88;;;-3.40;99.90;;;;;;4952083;28;20573;-74
2024/01/09 07:50:18;;;;;;;24.27;11.30;;;-3.40;99.90;;;;;;4951514;28;20029;-74
2024/01/09 07:52:46;;;;;;;30.33;11.23;;;-3.50;99.90;;;;;;4953630;28;20110;-75
2024/01/09 07:55:12;;;;;;;25.25;12.18;;;-3.50;99.90;;;;;;4956187;28;20038;-74
2024/01/09 07:57:38;;;;;;;30.83;12.57;;;-3.50;99.90;;;;;;4956425;28;20061;-74
2024/01/09 08:00:10;;;;;;;25.23;12.20;;;-3.50;99.90;;;;;;4952153;28;20680;-74
2024/01/09 08:02:36;;;;;;;31.52;12.60;;;-3.50;99.90;;;;;;4953799;28;20545;-74
2024/01/09 08:05:02;;;;;;;27.65;11.63;;;-3.40;99.90;;;;;;4951332;28;20187;-75
2024/01/09 08:07:28;;;;;;;27.92;11.60;;;-3.40;99.90;;;;;;4951159;28;20038;-75
2024/01/09 08:09:53;;;;;;;26.17;11.45;;;-3.40;99.90;;;;;;4952563;28;20024;-75
2024/01/09 08:12:22;;;;;;;28.13;11.52;;;-3.50;99.90;;;;;;4950656;28;20027;-75
2024/01/09 08:14:49;;;;;;;24.63;11.93;;;-3.50;99.90;;;;;;4954784;28;20035;-75
2024/01/09 08:17:14;;;;;;;33.58;12.52;;;-3.50;99.90;;;;;;4952700;28;20023;-75
2024/01/09 08:19:44;;;;;;;28.90;13.25;;;-3.50;99.90;;;;;;4951292;28;20030;-75
2024/01/09 08:22:18;;;;;;;26.08;12.45;;;-3.50;99.90;;;;;;4951557;28;20085;-75
2024/01/09 08:24:43;;;;;;;27.23;11.73;;;-3.50;99.90;;;;;;4955826;28;20025;-75
2024/01/09 08:27:12;;;;;;;27.02;12.32;;;-3.50;99.90;;;;;;4965357;28;20035;-75
2024/01/09 08:29:38;;;;;;;25.50;11.07;;;-3.50;99.90;;;;;;4951296;28;20026;-75
2024/01/09 08:32:09;;;;;;;24.25;10.50;;;-3.60;99.90;;;;;;4965671;28;20054;-75
2024/01/09 08:34:35;;;;;;;33.88;12.88;;;-3.50;99.90;;;;;;4951630;28;20050;-75
2024/01/09 08:37:06;;;;;;;27.45;12.48;;;-3.50;99.90;;;;;;4952027;28;20499;-75
2024/01/09 08:39:35;;;;;;;27.08;12.18;;;-3.40;99.90;;;;;;4948090;28;20031;-75
2024/01/09 08:42:04;;;;;;;32.75;13.93;;;-3.30;99.90;;;;;;4975028;23;20505;-76
2024/01/09 08:44:29;;;;;;;28.42;12.73;;;-3.20;99.90;;;;;;4972589;28;20485;-76
2024/01/09 08:46:55;;;;;;;27.25;12.80;;;-3.10;99.90;;;;;;4985211;28;20038;-75
2024/01/09 08:49:20;;;;;;;29.25;13.00;;;-3.10;99.90;;;;;;4973269;28;20085;-75
2024/01/09 08:51:58;;;;;;;30.15;12.02;;;-3.00;99.90;;;;;;4973377;28;20026;-76
2024/01/09 08:54:26;;;;;;;28.33;11.80;;;-3.00;99.90;;;;;;4975694;28;20037;-76
2024/01/09 08:56:52;;;;;;;26.77;11.32;;;-3.00;99.90;;;;;;4986832;28;20039;-77
2024/01/09 08:59:18;;;;;;;32.42;12.68;;;-2.90;99.90;;;;;;4971081;28;20023;-75
2024/01/09 09:01:49;;;;;;;26.00;11.45;;;-3.00;99.90;;;;;;4969077;28;20031;-75
2024/01/09 09:04:15;;;;;;;28.02;12.35;;;-3.00;99.90;;;;;;4973662;28;20027;-75
2024/01/09 09:06:40;;;;;;;29.83;13.98;;;-2.90;99.90;;;;;;4970739;28;20033;-78
2024/01/09 09:09:06;;;;;;;26.33;11.85;;;-2.90;99.90;;;;;;4978203;28;20033;-76
2024/01/09 09:11:38;;;;;;;28.13;12.07;;;-2.90;99.90;;;;;;4969894;28;20038;-76
2024/01/09 09:14:13;;;;;;;26.77;11.98;;;-2.90;99.90;;;;;;4972570;28;20220;-75
2024/01/09 09:16:39;;;;;;;29.27;12.57;;;-2.90;99.90;;;;;;4975705;28;20085;-76
2024/01/09 09:19:04;;;;;;;29.45;12.07;;;-2.90;99.90;;;;;;4969830;28;20050;-76
2024/01/09 09:21:30;;;;;;;28.95;13.30;;;-3.00;99.90;;;;;;4976110;28;20034;-76
2024/01/09 09:23:55;;;;;;;24.83;11.10;;;-3.00;99.90;;;;;;4968898;28;20102;-76
2024/01/09 09:26:21;;;;;;;29.58;12.57;;;-2.90;99.90;;;;;;4971885;28;20125;-75
2024/01/09 09:28:47;;;;;;;26.13;11.43;;;-2.90;99.90;;;;;;4969921;28;20018;-75
2024/01/09 09:31:15;;;;;;;26.00;12.07;;;-3.00;99.90;;;;;;4970734;28;20026;-75
2024/01/09 09:33:42;;;;;;;26.60;11.82;;;-3.00;99.90;;;;;;4968967;28;20389;-76
2024/01/09 09:36:16;;;;;;;29.08;12.43;;;-3.10;99.90;;;;;;4969622;28;20049;-76
2024/01/09 09:38:45;;;;;;;29.88;12.02;;;-3.00;99.90;;;;;;4969394;28;20546;-76
2024/01/09 09:41:16;;;;;;;25.75;12.30;;;-3.20;99.90;;;;;;4965572;28;20552;-75
2024/01/09 09:43:50;;;;;;;24.65;10.90;;;-3.20;99.90;;;;;;4965299;28;20054;-75
2024/01/09 09:46:23;;;;;;;30.83;13.18;;;-3.20;99.90;;;;;;4989369;28;20026;-76
2024/01/09 09:49:05;;;;;;;;;;;-3.10;99.90;;;;;;4971201;28;20046;-76
2024/01/09 09:51:31;;;;;;;26.95;12.50;;;-3.10;99.90;;;;;;4966809;28;19988;-76
2024/01/09 09:54:03;;;;;;;34.08;14.18;;;-3.00;99.90;;;;;;4973490;28;20122;-75
2024/01/09 09:56:30;;;;;;;28.67;12.32;;;-3.00;99.90;;;;;;4975245;28;20040;-76
2024/01/09 09:58:56;;;;;;;24.70;12.20;;;-3.00;99.90;;;;;;4974120;28;20026;-77
2024/01/09 10:01:23;;;;;;;31.45;13.18;;;-2.90;99.90;;;;;;4967862;28;20030;-75
2024/01/09 10:03:58;;;;;;;28.60;12.32;;;-2.80;99.90;;;;;;4969816;28;20027;-75
2024/01/09 10:06:26;;;;;;;26.08;12.57;;;-2.80;99.90;;;;;;4972885;28;20035;-76
2024/01/09 10:08:53;;;;;;;27.85;12.20;;;-2.70;99.90;;;;;;4970190;28;20381;-75
2024/01/09 10:11:19;;;;;;;30.17;12.07;;;-2.60;99.90;;;;;;4974087;28;20030;-76
2024/01/09 10:13:45;;;;;;;28.77;13.00;;;-2.50;99.90;;;;;;4970619;28;20478;-79
2024/01/09 10:16:11;;;;;;;29.55;12.98;;;-2.50;99.90;;;;;;4972349;28;20038;-75
2024/01/09 10:18:37;;;;;;;26.52;13.00;;;-2.40;99.90;;;;;;4967517;28;20038;-76
2024/01/09 10:21:05;;;;;;;25.27;11.77;;;-2.40;99.90;;;;;;4970161;28;20048;-75
2024/01/09 10:23:39;;;;;;;27.02;12.80;;;-2.40;99.90;;;;;;4972140;28;20484;-75
2024/01/09 10:26:10;;;;;;;28.30;13.13;;;-2.40;99.90;;;;;;4988166;28;20080;-75
2024/01/09 10:28:36;;;;;;;24.67;11.40;;;-2.40;99.90;;;;;;4967564;28;20042;-76
2024/01/09 10:31:06;;;;;;;28.02;12.85;;;-2.40;99.90;;;;;;4971947;28;20042;-76
2024/01/09 10:33:39;;;;;;;28.42;13.15;;;-2.30;99.90;;;;;;4972170;28;20027;-77
2024/01/09 10:36:09;;;;;;;29.15;12.52;;;-2.20;99.90;;;;;;4970040;28;20035;-76
2024/01/09 10:38:37;;;;;;;28.90;11.85;;;-2.20;99.90;;;;;;4974514;28;20026;-77
2024/01/09 10:41:21;;;;;;;31.40;12.93;;;-2.10;99.90;;;;;;4968627;28;20093;-76
2024/01/09 10:43:53;;;;;;;26.42;11.77;;;-2.00;99.90;;;;;;4972720;28;20034;-76
2024/01/09 10:46:23;;;;;;;25.92;11.88;;;-2.00;99.90;;;;;;4975604;28;20065;-79
2024/01/09 10:48:50;;;;;;;29.33;12.73;;;-2.00;99.90;;;;;;4973999;28;20030;-75
2024/01/09 10:51:22;;;;;;;28.67;12.27;;;-2.00;99.90;;;;;;4973186;28;20015;-75
2024/01/09 10:53:50;;;;;;;27.80;12.13;;;-2.00;99.90;;;;;;4970519;28;20057;-75
2024/01/09 10:56:22;;;;;;;33.15;13.30;;;-1.90;99.90;;;;;;4976952;28;20505;-75
2024/01/09 10:58:50;;;;;;;30.20;13.75;;;-1.80;99.90;;;;;;4969926;28;20041;-75
2024/01/09 11:01:16;;;;;;;31.40;14.23;;;-1.80;99.90;;;;;;4968600;28;20019;-77
2024/01/09 11:03:47;;;;;;;28.10;12.77;;;-1.70;99.90;;;;;;4968435;28;20105;-76
2024/01/09 11:06:15;;;;;;;27.02;12.98;;;-1.70;99.90;;;;;;4971737;28;20122;-78
2024/01/09 11:08:43;;;;;;;27.65;13.55;;;-1.60;99.90;;;;;;4962729;28;20497;-77
2024/01/09 11:11:12;;;;;;;30.27;12.30;;;-1.60;99.90;;;;;;4969531;28;20024;-75
2024/01/09 11:13:43;;;;;;;28.02;11.95;;;-1.50;99.90;;;;;;4958939;28;20034;-76
2024/01/09 11:16:10;;;;;;;27.70;12.73;;;-1.50;99.90;;;;;;4965318;28;20051;-75
2024/01/09 11:18:37;;;;;;;25.85;11.93;;;-1.40;99.90;;;;;;4964596;28;20474;-76
2024/01/09 11:21:04;;;;;;;31.52;13.35;;;-1.50;99.90;;;;;;4961563;28;20490;-75
2024/01/09 11:23:54;;;;;;;26.60;12.68;;;-1.40;99.90;;;;;;4964494;28;20508;-76
2024/01/09 11:26:20;;;;;;;27.85;12.50;;;-1.40;99.90;;;;;;4962181;28;20019;-77
2024/01/09 11:28:46;;;;;;;26.58;11.88;;;-1.50;99.90;;;;;;4966017;28;20032;-76
2024/01/09 11:31:20;;;;;;;29.73;12.15;;;-1.50;99.90;;;;;;4966137;28;20038;-75
2024/01/09 11:33:50;;;;;;;26.58;12.20;;;-1.50;99.90;;;;;;4968232;28;20027;-75
2024/01/09 11:36:37;;;;;;;25.63;11.27;;;-1.60;99.90;;;;;;4982707;28;20058;-78
2024/01/09 11:39:04;;;;;;;34.92;13.63;;;-1.60;99.90;;;;;;4963597;28;20039;-77
2024/01/09 11:41:35;;;;;;;34.55;14.32;;;-1.70;99.90;;;;;;4966115;28;20023;-75
2024/01/09 11:44:04;;;;;;;31.08;13.70;;;-1.70;99.90;;;;;;4966970;28;20072;-75
2024/01/09 11:46:35;;;;;;;29.30;12.93;;;-1.70;99.90;;;;;;4974524;28;20490;-75
2024/01/09 11:49:05;;;;;;;25.63;11.23;;;-1.70;99.90;;;;;;4967800;28;20037;-78
2024/01/09 11:51:33;;;;;;;22.75;11.57;;;-1.70;99.90;;;;;;4971932;28;20031;-76
2024/01/09 11:54:02;;;;;;;27.88;11.68;;;-1.70;99.90;;;;;;4970532;28;20383;-74
2024/01/09 11:56:29;;;;;;;24.17;11.18;;;-1.80;99.90;;;;;;4971381;28;20038;-75
2024/01/09 11:58:55;;;;;;;25.85;11.60;;;-1.80;99.90;;;;;;4968191;28;20573;-75
2024/01/09 12:01:21;;;;;;;28.65;12.68;;;-1.70;99.90;;;;;;4974167;28;20162;-75
2024/01/09 12:03:55;;;;;;;20.88;9.85;;;-1.70;99.90;;;;;;4967819;28;20074;-76
2024/01/09 12:06:25;;;;;;;26.20;11.13;;;-1.60;99.90;;;;;;4971527;28;20154;-77
2024/01/09 12:08:57;;;;;;;24.08;11.60;;;-1.60;99.90;;;;;;4967257;28;20042;-77
2024/01/09 12:11:22;;;;;;;24.92;11.20;;;-1.50;99.90;;;;;;4969027;28;20034;-75
2024/01/09 12:13:58;;;;;;;24.60;11.65;;;-1.40;99.90;;;;;;4966087;28;20023;-75
2024/01/09 12:16:24;;;;;;;27.45;13.13;;;-1.40;99.90;;;;;;4971087;28;20026;-77
2024/01/09 12:18:59;;;;;;;28.17;12.30;;;-1.30;99.90;;;;;;4974438;28;20031;-76
2024/01/09 12:21:30;;;;;;;25.50;12.23;;;-1.30;99.90;;;;;;4975135;28;20054;-75
2024/01/09 12:23:59;;;;;;;27.50;12.65;;;-1.20;99.90;;;;;;4972349;28;20030;-76
2024/01/09 12:26:26;;;;;;;25.13;12.80;;;-1.10;99.90;;;;;;4972636;28;20027;-75
2024/01/09 12:28:52;;;;;;;30.02;12.18;;;-1.10;99.90;;;;;;4973894;28;20027;-76
2024/01/09 12:31:18;;;;;;;23.52;11.20;;;-1.00;99.90;;;;;;4967138;28;20107;-80
2024/01/09 12:33:47;;;;;;;23.50;11.32;;;-0.90;99.90;;;;;;4967122;28;20027;-76
2024/01/09 12:36:14;;;;;;;28.10;12.65;;;-0.90;99.90;;;;;;4967157;28;20396;-75